Date,TemperatureHighF,TemperatureAvgF,TemperatureLowF,DewpointHighF,DewpointAvgF,DewpointLowF,HumidityHigh,HumidityAvg,HumidityLow,PressureMaxIn,PressureMinIn,WindSpeedMaxMPH,WindSpeedAvgMPH,GustSpeedMaxMPH,PrecipitationSumIn
2013-1-1,24,16,12,24,15,10,97,93,91,0.00,40.00,0,-999,0,0.00
2013-1-2,20,16,12,18,14,10,94,92,91,0.00,40.00,0,-999,0,0.00
2013-1-3,24,17,14,22,15,12,96,89,74,0.00,40.00,0,-999,0,0.00
2013-1-4,36,31,23,35,30,22,101,99,91,0.00,40.00,0,-999,0,0.00
2013-1-5,29,25,22,26,23,20,98,92,80,0.00,40.00,0,-999,0,0.00
2013-1-6,35,32,27,34,31,27,101,99,91,0.00,40.00,0,-999,0,0.00
2013-1-7,39,35,32,39,35,32,101,99,89,0.00,40.00,0,-999,0,0.00
2013-1-8,41,36,33,41,36,33,101,100,92,0.00,40.00,0,-999,0,0.00
2013-1-9,35,30,25,34,30,24,101,98,91,0.00,40.00,0,-999,0,0.00
2013-1-10,29,25,23,26,23,21,96,94,84,0.00,40.00,0,-999,0,0.00
2013-1-11,25,20,13,22,17,10,96,89,74,0.00,40.00,0,-999,0,0.00
2013-1-12,21,15,10,19,13,8,93,90,80,0.00,40.00,0,-999,0,0.00
2013-1-13,24,15,9,19,12,6,93,88,70,0.00,40.00,0,-999,0,0.00
2013-1-14,28,22,14,28,21,12,98,93,84,0.00,40.00,0,-999,0,0.00
2013-1-15,36,30,24,35,30,24,101,99,92,0.00,40.00,0,-999,0,0.00
2013-1-16,39,33,29,33,28,21,98,83,62,0.00,40.00,0,-999,0,0.00
2013-1-17,49,36,29,33,25,19,82,66,41,0.00,40.00,0,-999,0,0.00
2013-1-18,44,36,32,31,24,14,75,61,45,0.00,40.00,0,-999,0,0.00
2013-1-19,50,37,32,29,20,14,71,50,30,0.00,40.00,0,-999,0,0.00
2013-1-20,48,38,30,25,17,9,72,46,20,0.00,40.00,0,-999,0,0.00
2013-1-21,48,32,23,25,20,15,82,64,27,0.00,40.00,0,-999,0,0.00
2013-1-22,42,29,21,23,19,15,83,67,36,0.00,40.00,0,-999,0,0.00
2013-1-23,40,34,29,33,25,17,101,72,45,0.00,40.00,0,-999,0,0.00
2013-1-24,39,33,26,38,33,25,101,99,91,0.00,40.00,0,-999,0,0.00
2013-1-25,41,36,32,41,36,32,101,101,100,0.00,40.00,0,-999,0,0.00
2013-1-26,32,30,28,32,30,27,101,98,92,0.00,40.00,0,-999,0,0.00
2013-1-27,30,29,27,29,28,26,99,97,91,0.00,40.00,0,-999,0,0.00
2013-1-28,31,30,28,31,29,28,101,99,96,0.00,40.00,0,-999,0,0.00
2013-1-29,33,32,30,33,32,30,101,101,100,0.00,40.00,0,-999,0,0.00
2013-1-30,36,34,32,36,34,32,101,101,100,0.00,40.00,0,-999,0,0.00
2013-1-31,37,35,34,37,35,34,101,101,100,0.00,40.00,0,-999,0,0.00
2013-2-1,39,34,31,37,34,31,101,100,91,0.00,40.00,0,-999,0,0.00
2013-2-2,44,35,30,35,31,29,101,89,57,0.00,40.00,0,-999,0,0.00
2013-2-3,38,33,29,36,32,29,101,97,85,0.00,40.00,0,-999,0,0.00
2013-2-4,44,34,28,36,30,27,101,85,51,0.00,40.00,0,-999,0,0.00
2013-2-5,36,34,32,35,31,22,101,92,60,0.00,40.00,0,-999,0,0.00
2013-2-6,35,32,31,34,32,31,101,99,90,0.00,40.00,0,-999,0,0.00
2013-2-7,32,29,22,32,28,21,101,95,81,0.00,40.00,0,-999,0,0.00
2013-2-8,33,25,19,29,23,18,97,91,76,0.00,40.00,0,-999,0,0.00
2013-2-9,31,28,26,30,28,24,101,98,91,0.00,40.00,0,-999,0,0.00
2013-2-10,39,30,25,35,30,24,101,98,80,0.00,40.00,0,-999,0,0.00
2013-2-11,34,30,27,34,30,27,101,100,94,0.00,40.00,0,-999,0,0.00
2013-2-12,38,35,33,38,35,33,101,99,89,0.00,40.00,0,-999,0,0.00
2013-2-13,38,35,33,37,35,33,101,101,94,0.00,40.00,0,-999,0,0.00
2013-2-14,40,35,32,40,35,32,101,101,100,0.00,40.00,0,-999,0,0.00
2013-2-15,47,37,31,39,34,31,101,92,66,0.00,40.00,0,-999,0,0.00
2013-2-16,37,33,29,36,32,28,101,99,91,0.00,40.00,0,-999,0,0.00
2013-2-17,30,27,23,29,24,22,99,90,82,0.00,40.00,0,-999,0,0.00
2013-2-18,32,28,22,28,25,21,97,91,81,0.00,40.00,0,-999,0,0.00
2013-2-19,38,29,24,29,25,23,98,86,57,0.00,40.00,0,-999,0,0.00
2013-2-20,33,30,28,30,28,25,101,91,77,0.00,40.00,0,-999,0,0.00
2013-2-21,31,29,27,31,29,27,101,100,98,0.00,40.00,0,-999,0,0.00
2013-2-22,33,31,26,33,31,26,101,101,99,0.00,40.00,0,-999,0,0.00
2013-2-23,28,26,25,28,26,24,99,99,97,0.00,40.00,0,-999,0,0.00
2013-2-24,35,30,25,33,29,25,101,97,89,0.00,40.00,0,-999,0,0.00
2013-2-25,32,29,25,32,29,24,101,101,97,0.00,40.00,0,-999,0,0.00
2013-2-26,34,29,25,34,28,25,101,97,84,0.00,40.00,0,-999,0,0.00
2013-2-27,37,32,27,35,31,27,101,99,83,0.00,40.00,0,-999,0,0.00
2013-2-28,43,37,33,43,37,33,101,101,100,0.00,40.00,0,-999,0,0.00
2013-3-1,45,38,34,44,38,34,101,100,90,0.00,40.00,0,-999,0,0.00
2013-3-2,45,37,29,43,37,29,101,99,87,0.00,40.00,0,-999,0,0.00
2013-3-3,33,28,21,30,25,19,101,88,71,0.00,40.00,0,-999,0,0.00
2013-3-4,39,31,20,22,18,14,97,61,40,0.00,40.00,0,-999,0,0.00
2013-3-5,35,30,27,30,25,19,97,81,65,0.00,40.00,0,-999,0,0.00
2013-3-6,33,31,29,33,31,29,101,99,96,0.00,40.00,0,-999,0,0.00
2013-3-7,36,31,24,34,31,24,101,99,86,0.00,40.00,0,-999,0,0.00
2013-3-8,42,32,25,34,28,22,101,88,46,0.00,40.00,0,-999,0,0.00
2013-3-9,45,34,25,28,25,17,99,74,33,0.00,40.00,0,-999,0,0.00
2013-3-10,46,36,28,39,30,11,101,83,26,0.00,40.00,0,-999,0,0.00
2013-3-11,42,38,35,42,38,35,101,101,100,0.00,40.00,0,-999,0,0.00
2013-3-12,46,39,34,44,38,34,101,98,81,0.00,40.00,0,-999,0,0.00
2013-3-13,55,40,34,41,37,33,101,93,48,0.00,40.00,0,-999,0,0.00
2013-3-14,56,43,37,41,34,18,101,77,26,0.00,40.00,0,-999,0,0.00
2013-3-15,48,40,36,43,39,36,101,95,72,0.00,40.00,0,-999,0,0.00
2013-3-16,39,34,27,38,34,26,101,100,93,0.00,40.00,0,-999,0,0.00
2013-3-17,29,26,24,28,26,24,101,98,93,0.00,40.00,0,-999,0,0.00
2013-3-18,35,29,25,30,27,23,99,94,79,0.00,40.00,0,-999,0,0.00
2013-3-19,38,31,24,34,29,23,101,90,64,0.00,40.00,0,-999,0,0.00
2013-3-20,39,33,25,39,32,24,101,98,74,0.00,40.00,0,-999,0,0.00
2013-3-21,30,27,24,30,27,23,101,100,98,0.00,40.00,0,-999,0,0.00
2013-3-22,30,25,22,30,25,21,101,99,97,0.00,40.00,0,-999,0,0.00
2013-3-23,35,26,20,30,24,19,99,93,66,0.00,40.00,0,-999,0,0.00
2013-3-24,37,30,23,29,25,22,98,81,59,0.00,40.00,0,-999,0,0.00
2013-3-25,43,34,26,36,29,24,101,84,58,0.00,40.00,0,-999,0,0.00
2013-3-26,42,35,31,38,34,31,101,94,72,0.00,40.00,0,-999,0,0.00
2013-3-27,47,38,32,41,36,32,101,96,65,0.00,40.00,0,-999,0,0.00
2013-3-28,50,39,33,43,37,33,101,95,69,0.00,40.00,0,-999,0,0.00
2013-3-29,48,40,36,45,39,36,101,98,73,0.00,40.00,0,-999,0,0.00
2013-3-30,59,44,35,44,38,-100,101,83,51,0.00,40.00,0,-999,0,0.00
2013-3-31,59,45,36,44,36,32,98,75,43,0.00,40.00,0,-999,0,0.00
2013-4-1,48,43,40,45,43,39,101,99,83,0.00,40.00,0,-999,0,0.00
2013-4-2,50,43,38,43,41,37,101,94,72,0.00,40.00,0,-999,0,0.00
2013-4-3,55,42,34,42,37,33,101,85,44,0.00,40.00,0,-999,0,0.00
2013-4-4,51,42,39,46,40,36,101,94,57,0.00,40.00,0,-999,0,0.00
2013-4-5,43,40,36,43,40,36,101,101,100,0.00,40.00,0,-999,0,0.00
2013-4-6,40,36,33,38,35,33,101,99,84,0.00,40.00,0,-999,0,0.00
2013-4-7,37,33,31,37,33,31,101,101,99,0.00,40.00,0,-999,0,0.00
2013-4-8,36,32,28,35,32,28,101,100,94,0.00,40.00,0,-999,0,0.00
2013-4-9,44,36,29,40,35,29,101,98,77,0.00,40.00,0,-999,0,0.00
2013-4-10,44,38,33,44,38,33,101,100,93,0.00,40.00,0,-999,0,0.00
2013-4-11,39,34,31,35,32,30,101,95,84,0.00,40.00,0,-999,0,0.00
2013-4-12,48,35,28,36,32,28,101,89,46,0.00,40.00,0,-999,0,0.00
2013-4-13,35,30,26,35,29,26,101,97,87,0.00,40.00,0,-999,0,0.00
2013-4-14,35,30,28,32,29,27,101,96,84,0.00,40.00,0,-999,0,0.00
2013-4-15,34,30,28,33,29,27,101,97,84,0.00,40.00,0,-999,0,0.00
2013-4-16,36,32,28,33,30,26,101,95,72,0.00,40.00,0,-999,0,0.00
2013-4-17,43,33,23,34,29,22,98,87,59,0.00,40.00,0,-999,0,0.00
2013-4-18,43,38,33,40,36,33,101,95,79,0.00,40.00,0,-999,0,0.00
2013-4-19,42,40,38,42,40,38,101,101,100,0.00,40.00,0,-999,0,0.00
2013-4-20,42,38,35,38,36,35,101,95,81,0.00,40.00,0,-999,0,0.00
2013-4-21,39,37,34,38,36,33,101,97,92,0.00,40.00,0,-999,0,0.00
2013-4-22,46,37,31,35,25,18,101,65,35,0.00,40.00,0,-999,0,0.00
2013-4-23,55,39,27,31,22,10,80,55,17,0.00,40.00,0,-999,0,0.00
2013-4-24,60,46,32,34,23,14,80,42,18,0.00,40.00,0,-999,0,0.00
2013-4-25,61,47,36,38,34,29,88,63,36,0.00,40.00,0,-999,0,0.00
2013-4-26,66,50,38,39,34,25,97,62,23,0.00,40.00,0,-999,0,0.00
2013-4-27,60,48,38,40,32,25,88,60,28,0.00,40.00,0,-999,0,0.00
2013-4-28,49,43,39,41,39,35,101,86,60,0.00,40.00,0,-999,0,0.00
2013-4-29,42,38,30,42,36,26,101,94,69,0.00,40.00,0,-999,0,0.00
2013-4-30,37,32,27,28,26,23,96,79,60,0.00,40.00,0,-999,0,0.00
2013-5-1,53,39,25,30,24,18,96,62,25,0.00,40.00,0,-999,0,0.00
2013-5-2,65,48,35,40,27,15,78,50,15,0.00,40.00,0,-999,0,0.00
2013-5-3,65,49,37,41,35,30,88,63,32,0.00,40.00,0,-999,0,0.00
2013-5-4,61,49,39,40,33,26,83,58,27,0.00,40.00,0,-999,0,0.00
2013-5-5,64,59,53,38,35,31,57,41,29,0.00,40.00,0,-999,0,0.00
2013-5-6,74,58,46,49,39,30,85,54,21,0.00,40.00,0,-999,0,0.00
2013-5-7,67,55,44,48,46,43,101,74,45,0.00,40.00,0,-999,0,0.00
2013-5-8,68,56,46,49,47,44,99,76,44,0.00,40.00,0,-999,0,0.00
2013-5-9,76,57,45,50,46,37,101,72,32,0.00,40.00,0,-999,0,0.00
2013-5-10,78,61,46,50,42,36,87,55,25,0.00,40.00,0,-999,0,0.00
2013-5-11,79,62,48,55,48,41,83,61,31,0.00,40.00,0,-999,0,0.00
2013-5-12,69,58,50,54,50,40,92,78,35,0.00,40.00,0,-999,0,0.00
2013-5-13,54,48,41,50,45,39,101,89,57,0.00,40.00,0,-999,0,0.00
2013-5-14,55,44,34,39,35,24,101,76,34,0.00,40.00,0,-999,0,0.00
2013-5-15,48,43,38,45,39,33,101,88,61,0.00,40.00,0,-999,0,0.00
2013-5-16,54,45,41,47,35,-100,101,97,65,0.00,40.00,0,-999,0,0.00
2013-5-17,46,42,38,42,37,-100,101,93,67,0.00,40.00,0,-999,0,0.00
2013-5-18,44,41,39,42,40,39,101,99,93,0.00,40.00,0,-999,0,0.00
2013-5-19,50,44,38,44,41,37,101,90,65,0.00,40.00,0,-999,0,0.00
2013-5-20,66,49,35,47,40,32,101,74,33,0.00,40.00,0,-999,0,0.00
2013-5-21,46,38,31,43,36,31,101,95,66,0.00,40.00,0,-999,0,0.00
2013-5-22,34,32,30,34,32,30,101,100,98,0.00,40.00,0,-999,0,0.00
2013-5-23,42,37,33,40,36,33,101,96,82,0.00,40.00,0,-999,0,0.00
2013-5-24,45,38,33,41,37,33,101,96,78,0.00,40.00,0,-999,0,0.00
2013-5-25,54,44,37,44,39,35,101,85,56,0.00,40.00,0,-999,0,0.00
2013-5-26,51,45,43,45,43,41,101,93,74,0.00,40.00,0,-999,0,0.00
2013-5-27,52,44,38,49,43,38,101,98,86,0.00,40.00,0,-999,0,0.00
2013-5-28,50,44,41,46,43,41,101,95,76,0.00,40.00,0,-999,0,0.00
2013-5-29,46,43,37,44,42,37,101,99,87,0.00,40.00,0,-999,0,0.00
2013-5-30,46,40,35,43,39,35,101,95,76,0.00,40.00,0,-999,0,0.00
2013-5-31,60,47,39,46,41,34,101,82,44,0.00,40.00,0,-999,0,0.00
2013-6-1,63,51,41,48,43,33,101,77,40,0.00,40.00,0,-999,0,0.00
2013-6-2,56,50,46,47,44,41,101,83,57,0.00,40.00,0,-999,0,0.00
2013-6-3,66,52,42,45,41,36,101,71,36,0.00,40.00,0,-999,0,0.00
2013-6-4,72,56,40,45,39,34,87,56,25,0.00,40.00,0,-999,0,0.00
2013-6-5,75,61,47,49,43,39,82,54,30,0.00,40.00,0,-999,0,0.00
2013-6-6,74,62,52,51,46,29,91,61,24,0.00,40.00,0,-999,0,0.00
2013-6-7,68,58,49,51,44,29,91,62,30,0.00,40.00,0,-999,0,0.00
2013-6-8,71,58,43,50,37,18,94,53,14,0.00,40.00,0,-999,0,0.00
2013-6-9,64,54,46,45,36,15,93,57,15,0.00,40.00,0,-999,0,0.00
2013-6-10,62,50,40,42,38,28,99,70,29,0.00,40.00,0,-999,0,0.00
2013-6-11,48,43,38,43,38,34,97,84,63,0.00,40.00,0,-999,0,0.00
2013-6-12,48,43,40,42,39,36,98,88,70,0.00,40.00,0,-999,0,0.00
2013-6-13,46,42,39,43,41,38,101,95,84,0.00,40.00,0,-999,0,0.00
2013-6-14,63,49,40,46,42,38,101,79,41,0.00,40.00,0,-999,0,0.00
2013-6-15,71,58,44,49,42,32,90,60,28,0.00,40.00,0,-999,0,0.00
2013-6-16,69,56,48,51,47,45,95,73,45,0.00,40.00,0,-999,0,0.00
2013-6-17,66,55,45,49,46,43,94,73,48,0.00,40.00,0,-999,0,0.00
2013-6-18,56,48,43,47,43,39,101,85,53,0.00,40.00,0,-999,0,0.00
2013-6-19,50,43,41,43,41,39,101,93,76,0.00,40.00,0,-999,0,0.00
2013-6-20,47,42,40,45,41,40,101,99,87,0.00,40.00,0,-999,0,0.00
2013-6-22,69,61,41,51,46,40,99,61,41,0.00,40.00,0,-999,0,0.00
2013-6-23,61,56,51,54,50,44,101,81,62,0.00,40.00,0,-999,0,0.00
2013-6-24,51,49,46,51,48,46,101,98,89,0.00,40.00,0,-999,0,0.00
2013-6-25,56,50,48,54,50,48,101,99,86,0.00,40.00,0,-999,0,0.00
2013-6-26,57,52,48,54,51,48,101,98,81,0.00,40.00,0,-999,0,0.00
2013-6-27,72,60,50,58,54,50,101,84,49,0.00,40.00,0,-999,0,0.00
2013-6-28,81,68,55,61,57,52,99,70,45,0.00,40.00,0,-999,0,0.00
2013-6-29,78,66,58,60,55,45,101,71,38,0.00,40.00,0,-999,0,0.00
2013-6-30,86,70,54,63,54,46,87,59,33,0.00,40.00,0,-999,0,0.00
2013-7-1,87,77,65,65,57,49,88,53,30,0.00,40.00,0,-999,0,0.00
2013-7-2,86,72,61,65,57,43,98,64,31,0.00,40.00,0,-999,0,0.00
2013-7-3,76,65,54,50,42,28,81,49,18,0.00,40.00,0,-999,0,0.00
2013-7-4,67,56,47,48,43,30,88,65,30,0.00,40.00,0,-999,0,0.00
2013-7-5,59,50,45,47,45,44,97,83,62,0.00,40.00,0,-999,0,0.00
2013-7-6,72,56,44,54,48,39,99,76,31,0.00,40.00,0,-999,0,0.00
2013-7-7,74,60,50,54,48,39,101,72,33,0.00,40.00,0,-999,0,0.00
2013-7-8,74,57,48,49,46,39,95,71,30,0.00,40.00,0,-999,0,0.00
2013-7-9,83,66,50,53,45,35,81,50,23,0.00,40.00,0,-999,0,0.00
2013-7-10,75,63,54,52,46,39,87,58,31,0.00,40.00,0,-999,0,0.00
2013-7-11,67,54,45,45,37,17,94,61,15,0.00,40.00,0,-999,0,0.00
2013-7-12,62,52,42,44,39,26,93,65,28,0.00,40.00,0,-999,0,0.00
2013-7-13,73,55,40,49,38,29,96,61,21,0.00,40.00,0,-999,0,0.00
2013-7-14,81,63,47,45,36,28,77,41,18,0.00,40.00,0,-999,0,0.00
2013-7-15,80,64,47,45,40,36,79,48,23,0.00,40.00,0,-999,0,0.00
2013-7-16,76,68,59,52,41,31,75,38,26,0.00,40.00,0,-999,0,0.00
2013-7-17,75,62,51,54,51,44,101,71,35,0.00,40.00,0,-999,0,0.00
2013-7-18,80,65,47,52,42,34,96,49,24,0.00,40.00,0,-999,0,0.00
2013-7-19,84,66,51,49,35,30,55,35,17,0.00,40.00,0,-999,0,0.00
2013-7-20,81,71,54,52,42,29,91,41,16,0.00,40.00,0,-999,0,0.00
2013-7-21,78,68,47,47,43,31,88,43,31,0.00,40.00,0,-999,0,0.00
2013-7-22,81,64,50,47,41,34,81,49,24,0.00,40.00,0,-999,0,0.00
2013-7-23,86,67,52,49,36,25,66,34,12,0.00,40.00,0,-999,0,0.00
2013-7-24,81,67,53,49,41,26,68,41,16,0.00,40.00,0,-999,0,0.00
2013-7-25,82,66,52,43,34,21,58,35,11,0.00,40.00,0,-999,0,0.00
2013-7-26,81,68,56,50,33,19,70,31,10,0.00,40.00,0,-999,0,0.00
2013-7-27,71,59,46,46,36,30,73,46,25,0.00,40.00,0,-999,0,0.00
2013-7-28,66,55,45,47,43,38,95,67,35,0.00,40.00,0,-999,0,0.00
2013-7-29,74,56,44,48,43,28,101,70,20,0.00,40.00,0,-999,0,0.00
2013-7-30,74,60,49,51,47,41,97,66,34,0.00,40.00,0,-999,0,0.00
2013-7-31,74,61,54,56,50,45,94,68,40,0.00,40.00,0,-999,0,0.00
2013-8-1,56,52,49,54,51,48,101,94,83,0.00,40.00,0,-999,0,0.00
2013-8-2,56,50,47,50,48,46,101,94,80,0.00,40.00,0,-999,0,0.00
2013-8-3,74,58,45,52,48,45,101,74,39,0.00,40.00,0,-999,0,0.00
2013-8-4,81,66,51,55,50,46,88,60,33,0.00,40.00,0,-999,0,0.00
2013-8-5,79,66,54,55,51,47,89,61,34,0.00,40.00,0,-999,0,0.00
2013-8-6,80,65,52,52,45,32,92,53,28,0.00,40.00,0,-999,0,0.00
2013-8-7,76,64,54,49,41,31,68,44,23,0.00,40.00,0,-999,0,0.00
2013-8-8,76,62,54,56,52,48,92,70,40,0.00,40.00,0,-999,0,0.00
2013-8-9,79,61,54,58,56,51,101,85,38,0.00,40.00,0,-999,0,0.00
2013-8-10,66,57,51,62,56,51,101,96,83,0.00,40.00,0,-999,0,0.00
2013-8-11,68,58,52,55,53,48,101,84,51,0.00,40.00,0,-999,0,0.00
2013-8-12,74,56,47,55,49,44,99,81,36,0.00,40.00,0,-999,0,0.00
2013-8-13,79,62,47,50,46,37,98,63,24,0.00,40.00,0,-999,0,0.00
2013-8-14,75,64,55,57,51,47,78,64,39,0.00,40.00,0,-999,0,0.00
2013-8-15,74,62,52,58,52,47,87,71,43,0.00,40.00,0,-999,0,0.00
2013-8-16,74,64,58,60,58,55,96,80,52,0.00,40.00,0,-999,0,0.00
2013-8-17,70,61,53,56,55,53,101,81,58,0.00,40.00,0,-999,0,0.00
2013-8-18,75,62,52,56,52,51,99,74,46,0.00,40.00,0,-999,0,0.00
2013-8-19,72,60,52,53,50,43,94,72,43,0.00,40.00,0,-999,0,0.00
2013-8-20,77,62,44,51,45,33,99,60,23,0.00,40.00,0,-999,0,0.00
2013-8-21,78,65,51,48,39,32,85,43,23,0.00,40.00,0,-999,0,0.00
2013-8-22,75,63,57,59,48,34,101,63,32,0.00,40.00,0,-999,0,0.00
2013-8-23,68,58,51,57,54,49,101,89,60,0.00,40.00,0,-999,0,0.00
2013-8-24,63,54,48,52,50,48,101,86,65,0.00,40.00,0,-999,0,0.00
2013-8-25,61,54,50,57,52,48,101,95,76,0.00,40.00,0,-999,0,0.00
2013-8-26,65,54,47,56,50,45,101,86,49,0.00,40.00,0,-999,0,0.00
2013-8-27,68,52,47,53,48,46,99,89,52,0.00,40.00,0,-999,0,0.00
2013-8-28,71,65,58,59,56,52,93,73,53,0.00,40.00,0,-999,0,0.00
2013-8-29,66,59,56,61,57,54,99,91,69,0.00,40.00,0,-999,0,0.00
2013-8-30,68,59,54,57,55,49,101,87,55,0.00,40.00,0,-999,0,0.00
2013-8-31,77,62,51,59,53,50,101,76,41,0.00,40.00,0,-999,0,0.00
2013-9-1,77,63,52,58,54,48,97,73,37,0.00,40.00,0,-999,0,0.00
2013-9-2,70,59,51,56,52,50,96,80,50,0.00,40.00,0,-999,0,0.00
2013-9-3,69,58,52,55,53,51,97,82,58,0.00,40.00,0,-999,0,0.00
2013-9-4,71,57,49,57,52,49,99,85,55,0.00,40.00,0,-999,0,0.00
2013-9-5,57,54,49,54,52,47,98,94,89,0.00,40.00,0,-999,0,0.00
2013-9-6,51,50,47,51,50,47,101,100,93,0.00,40.00,0,-999,0,0.00
2013-9-7,68,54,43,58,51,43,101,89,54,0.00,40.00,0,-999,0,0.00
2013-9-8,74,59,47,58,52,47,101,82,43,0.00,40.00,0,-999,0,0.00
2013-9-9,77,61,50,58,53,49,99,79,44,0.00,40.00,0,-999,0,0.00
2013-9-10,77,65,53,55,49,42,96,61,30,0.00,40.00,0,-999,0,0.00
2013-9-11,82,73,62,53,48,45,68,42,29,0.00,40.00,0,-999,0,0.00
2013-9-12,86,68,57,57,51,41,90,57,22,0.00,40.00,0,-999,0,0.00
2013-9-13,77,64,55,58,55,51,99,75,40,0.00,40.00,0,-999,0,0.00
2013-9-14,81,67,52,55,49,43,95,59,27,0.00,40.00,0,-999,0,0.00
2013-9-15,75,63,52,60,53,50,98,72,42,0.00,40.00,0,-999,0,0.00
2013-9-16,57,51,48,52,49,48,101,93,76,0.00,40.00,0,-999,0,0.00
2013-9-17,51,48,45,49,45,40,99,89,70,0.00,40.00,0,-999,0,0.00
2013-9-18,44,43,40,44,42,39,99,97,92,0.00,40.00,0,-999,0,0.00
2013-9-19,66,52,40,44,39,36,97,65,33,0.00,40.00,0,-999,0,0.00
2013-9-20,68,52,43,50,42,36,99,71,40,0.00,40.00,0,-999,0,0.00
2013-9-21,56,49,45,49,47,45,101,94,71,0.00,40.00,0,-999,0,0.00
2013-9-22,48,45,42,48,44,42,101,99,92,0.00,40.00,0,-999,0,0.00
2013-9-23,47,45,42,47,44,41,101,100,95,0.00,40.00,0,-999,0,0.00
2013-9-24,45,42,38,44,41,38,101,99,86,0.00,40.00,0,-999,0,0.00
2013-9-25,42,40,37,41,39,37,101,99,92,0.00,40.00,0,-999,0,0.00
2013-9-26,46,42,38,41,39,37,98,91,77,0.00,40.00,0,-999,0,0.00
2013-9-27,47,42,40,46,41,38,101,95,73,0.00,40.00,0,-999,0,0.00
2013-9-28,52,48,40,50,48,39,101,99,93,0.00,40.00,0,-999,0,0.00
2013-9-29,47,42,39,47,42,39,101,100,96,0.00,40.00,0,-999,0,0.00
2013-9-30,38,38,38,38,38,38,99,99,99,0.00,40.00,0,-999,0,0.00
2013-10-1,38,38,37,38,37,37,101,99,98,0.00,40.00,0,-999,0,0.00
2013-10-2,42,37,32,39,36,32,101,97,80,0.00,40.00,0,-999,0,0.00
2013-10-3,42,38,34,39,37,34,101,97,87,0.00,40.00,0,-999,0,0.00
2013-10-4,52,40,32,40,34,30,101,85,44,0.00,40.00,0,-999,0,0.00
2013-10-5,60,46,36,40,35,27,99,72,28,0.00,40.00,0,-999,0,0.00
2013-10-6,66,50,38,44,38,32,94,68,31,0.00,40.00,0,-999,0,0.00
2013-10-7,45,41,38,42,39,34,101,93,67,0.00,40.00,0,-999,0,0.00
2013-10-8,40,38,33,40,38,33,101,101,98,0.00,40.00,0,-999,0,0.00
2013-10-9,43,38,33,39,36,33,101,92,76,0.00,40.00,0,-999,0,0.00
2013-10-10,47,40,35,41,38,34,101,90,69,0.00,40.00,0,-999,0,0.00
2013-10-11,44,40,37,41,39,36,101,94,82,0.00,40.00,0,-999,0,0.00
2013-10-12,41,38,36,40,37,36,101,98,90,0.00,40.00,0,-999,0,0.00
2013-10-13,48,39,32,41,36,32,101,90,65,0.00,40.00,0,-999,0,0.00
2013-10-14,50,42,33,37,34,29,99,78,54,0.00,40.00,0,-999,0,0.00
2013-10-15,51,44,36,35,30,27,88,61,45,0.00,40.00,0,-999,0,0.00
2013-10-16,56,44,35,41,35,32,93,76,45,0.00,40.00,0,-999,0,0.00
2013-10-17,54,44,34,38,35,33,94,72,46,0.00,40.00,0,-999,0,0.00
2013-10-18,55,45,37,37,33,30,85,66,39,0.00,40.00,0,-999,0,0.00
2013-10-19,63,45,36,41,34,28,90,69,36,0.00,40.00,0,-999,0,0.00
2013-10-20,65,51,38,42,35,29,79,57,32,0.00,40.00,0,-999,0,0.00
2013-10-21,64,50,42,40,38,36,85,66,37,0.00,40.00,0,-999,0,0.00
2013-11-21,30,27,22,5,-2,-10,47,30,17,0.00,40.00,0,-999,0,0.00
2013-11-22,25,25,25,9,9,9,48,48,48,0.00,40.00,0,-999,0,0.00
2013-11-29,38,36,36,33,32,32,85,84,81,0.00,40.00,0,-999,0,0.00
2013-12-6,10,9,8,4,3,2,79,76,73,0.00,40.00,0,-999,0,0.00
2013-12-7,9,3,-2,2,-3,-7,81,76,71,0.00,40.00,0,-999,0,0.00
2013-12-8,19,9,-3,11,4,-7,89,80,55,0.00,40.00,0,-999,0,0.00
2013-12-9,25,19,9,25,17,7,97,92,81,0.00,40.00,0,-999,0,0.00
2013-12-10,30,26,21,28,24,20,97,95,88,0.00,40.00,0,-999,0,0.00
2013-12-11,35,26,20,30,24,19,99,93,77,0.00,40.00,0,-999,0,0.00
2013-12-12,37,31,23,33,30,22,101,97,78,0.00,40.00,0,-999,0,0.00
2013-12-13,38,34,32,38,34,32,101,101,100,0.00,40.00,0,-999,0,0.00
2013-12-14,38,34,32,38,34,32,101,101,100,0.00,40.00,0,-999,0,0.00
2013-12-15,41,36,31,41,35,31,101,100,97,0.00,40.00,0,-999,0,0.00
2013-12-16,35,32,30,33,31,27,101,97,73,0.00,40.00,0,-999,0,0.00
2013-12-17,45,36,32,31,27,26,77,69,47,0.00,40.00,0,-999,0,0.00
2013-12-18,37,32,23,34,30,20,98,91,81,0.00,40.00,0,-999,0,0.00
2013-12-19,27,23,19,21,17,11,95,79,54,0.00,40.00,0,-999,0,0.00
2013-12-20,38,31,23,38,29,14,101,93,64,0.00,40.00,0,-999,0,0.00
2013-12-21,38,36,35,38,36,35,101,101,100,0.00,40.00,0,-999,0,0.00
2013-12-22,40,38,35,40,38,35,101,101,100,0.00,40.00,0,-999,0,0.00
2013-12-23,41,37,31,41,37,29,101,101,93,0.00,40.00,0,-999,0,0.00
2013-12-24,33,29,26,31,28,26,101,97,89,0.00,40.00,0,-999,0,0.00
2013-12-25,34,31,25,30,27,25,97,84,70,0.00,40.00,0,-999,0,0.00
2013-12-26,40,36,34,36,34,29,101,91,80,0.00,40.00,0,-999,0,0.00
2013-12-27,41,37,34,38,32,29,101,84,70,0.00,40.00,0,-999,0,0.00
2013-12-28,37,32,28,33,29,26,101,87,68,0.00,40.00,0,-999,0,0.00
2013-12-29,43,35,27,32,24,18,90,67,42,0.00,40.00,0,-999,0,0.00
2013-12-30,41,38,34,39,36,33,99,92,86,0.00,40.00,0,-999,0,0.00
2013-12-31,39,36,34,36,33,24,98,90,62,0.00,40.00,0,-999,0,0.00
2014-1-1,43,35,31,38,33,30,101,92,69,0.00,40.00,0,-999,0,0.00
2014-1-2,53,40,31,34,30,24,97,72,45,0.00,40.00,0,-999,0,0.00